sensor_id;sensor_type;location;lat;lon;timestamp;P1;durP1;ratioP1;P2;durP2;ratioP2
47617;SDS011;33336;36.728;-4.414;2023-04-01T00:02:18;7.90;;;2.45;;
47617;SDS011;33336;36.728;-4.414;2023-04-01T00:07:21;7.43;;;1.77;;
47617;SDS011;33336;36.728;-4.414;2023-04-01T00:12:26;15.75;;;3.28;;
47617;SDS011;33336;36.728;-4.414;2023-04-01T00:17:29;6.10;;;2.13;;
47617;SDS011;33336;36.728;-4.414;2023-04-01T00:22:33;7.03;;;2.33;;
47617;SDS011;33336;36.728;-4.414;2023-04-01T00:27:37;5.70;;;2.42;;
47617;SDS011;33336;36.728;-4.414;2023-04-01T00:32:40;5.07;;;1.70;;
47617;SDS011;33336;36.728;-4.414;2023-04-01T00:37:43;8.30;;;2.20;;
47617;SDS011;33336;36.728;-4.414;2023-04-01T00:42:47;7.03;;;2.50;;
47617;SDS011;33336;36.728;-4.414;2023-04-01T00:47:50;10.52;;;2.00;;
47617;SDS011;33336;36.728;-4.414;2023-04-01T00:52:54;7.38;;;2.13;;
47617;SDS011;33336;36.728;-4.414;2023-04-01T00:57:58;5.78;;;1.98;;
47617;SDS011;33336;36.728;-4.414;2023-04-01T01:03:04;7.13;;;2.40;;
47617;SDS011;33336;36.728;-4.414;2023-04-01T01:08:09;7.82;;;2.03;;
47617;SDS011;33336;36.728;-4.414;2023-04-01T01:13:21;6.40;;;2.65;;
47617;SDS011;33336;36.728;-4.414;2023-04-01T01:18:31;5.90;;;2.05;;
47617;SDS011;33336;36.728;-4.414;2023-04-01T01:29:07;7.97;;;2.33;;
47617;SDS011;33336;36.728;-4.414;2023-04-01T01:34:21;10.90;;;3.53;;
47617;SDS011;33336;36.728;-4.414;2023-04-01T01:39:29;6.47;;;2.42;;
47617;SDS011;33336;36.728;-4.414;2023-04-01T01:44:36;5.75;;;2.38;;
47617;SDS011;33336;36.728;-4.414;2023-04-01T01:49:41;11.05;;;2.88;;
47617;SDS011;33336;36.728;-4.414;2023-04-01T01:54:50;7.93;;;2.47;;
47617;SDS011;33336;36.728;-4.414;2023-04-01T01:59:54;4.45;;;2.33;;
47617;SDS011;33336;36.728;-4.414;2023-04-01T02:10:08;7.50;;;3.03;;
47617;SDS011;33336;36.728;-4.414;2023-04-01T02:15:12;9.00;;;2.60;;
47617;SDS011;33336;36.728;-4.414;2023-04-01T02:20:17;7.03;;;2.50;;
47617;SDS011;33336;36.728;-4.414;2023-04-01T02:25:24;13.88;;;3.15;;
47617;SDS011;33336;36.728;-4.414;2023-04-01T02:30:29;9.07;;;3.05;;
47617;SDS011;33336;36.728;-4.414;2023-04-01T02:35:36;14.32;;;3.00;;
47617;SDS011;33336;36.728;-4.414;2023-04-01T02:40:45;8.60;;;2.42;;
47617;SDS011;33336;36.728;-4.414;2023-04-01T02:45:50;7.05;;;2.22;;
47617;SDS011;33336;36.728;-4.414;2023-04-01T02:50:53;11.25;;;2.00;;
47617;SDS011;33336;36.728;-4.414;2023-04-01T02:55:57;8.52;;;2.80;;
47617;SDS011;33336;36.728;-4.414;2023-04-01T03:01:01;6.72;;;2.13;;
47617;SDS011;33336;36.728;-4.414;2023-04-01T03:06:04;10.07;;;2.38;;
47617;SDS011;33336;36.728;-4.414;2023-04-01T03:11:10;9.13;;;2.60;;
47617;SDS011;33336;36.728;-4.414;2023-04-01T03:16:13;7.78;;;2.40;;
47617;SDS011;33336;36.728;-4.414;2023-04-01T03:21:16;12.80;;;2.50;;
47617;SDS011;33336;36.728;-4.414;2023-04-01T03:26:21;8.80;;;2.47;;
47617;SDS011;33336;36.728;-4.414;2023-04-01T03:31:25;11.32;;;2.80;;
47617;SDS011;33336;36.728;-4.414;2023-04-01T03:36:28;17.13;;;2.60;;
47617;SDS011;33336;36.728;-4.414;2023-04-01T03:41:32;9.50;;;2.58;;
47617;SDS011;33336;36.728;-4.414;2023-04-01T03:46:37;11.48;;;2.65;;
47617;SDS011;33336;36.728;-4.414;2023-04-01T03:51:40;9.68;;;2.53;;
47617;SDS011;33336;36.728;-4.414;2023-04-01T03:56:45;9.93;;;2.97;;
47617;SDS011;33336;36.728;-4.414;2023-04-01T04:01:49;4.28;;;2.03;;
47617;SDS011;33336;36.728;-4.414;2023-04-01T04:06:52;11.95;;;2.92;;
47617;SDS011;33336;36.728;-4.414;2023-04-01T04:11:56;10.98;;;2.30;;
47617;SDS011;33336;36.728;-4.414;2023-04-01T04:16:59;11.35;;;2.03;;
47617;SDS011;33336;36.728;-4.414;2023-04-01T04:22:03;11.32;;;2.35;;
47617;SDS011;33336;36.728;-4.414;2023-04-01T04:27:07;7.68;;;2.00;;
47617;SDS011;33336;36.728;-4.414;2023-04-01T04:32:10;9.52;;;2.67;;
47617;SDS011;33336;36.728;-4.414;2023-04-01T04:37:13;6.97;;;2.33;;
47617;SDS011;33336;36.728;-4.414;2023-04-01T04:42:17;7.88;;;2.28;;
47617;SDS011;33336;36.728;-4.414;2023-04-01T04:47:20;14.88;;;3.00;;
47617;SDS011;33336;36.728;-4.414;2023-04-01T04:52:24;7.60;;;2.58;;
47617;SDS011;33336;36.728;-4.414;2023-04-01T04:57:28;8.40;;;2.78;;
47617;SDS011;33336;36.728;-4.414;2023-04-01T05:02:32;8.52;;;3.10;;
47617;SDS011;33336;36.728;-4.414;2023-04-01T05:07:35;13.63;;;3.65;;
47617;SDS011;33336;36.728;-4.414;2023-04-01T05:12:39;9.60;;;3.28;;
47617;SDS011;33336;36.728;-4.414;2023-04-01T05:17:42;10.10;;;3.67;;
47617;SDS011;33336;36.728;-4.414;2023-04-01T05:22:46;14.38;;;4.07;;
47617;SDS011;33336;36.728;-4.414;2023-04-01T05:27:50;8.68;;;3.97;;
47617;SDS011;33336;36.728;-4.414;2023-04-01T05:32:53;10.50;;;4.00;;
47617;SDS011;33336;36.728;-4.414;2023-04-01T05:37:55;12.50;;;4.22;;
47617;SDS011;33336;36.728;-4.414;2023-04-01T05:43:02;9.60;;;3.40;;
47617;SDS011;33336;36.728;-4.414;2023-04-01T05:48:05;15.38;;;4.07;;
47617;SDS011;33336;36.728;-4.414;2023-04-01T05:53:08;12.00;;;4.30;;
47617;SDS011;33336;36.728;-4.414;2023-04-01T05:58:12;10.35;;;3.75;;
47617;SDS011;33336;36.728;-4.414;2023-04-01T06:03:16;12.15;;;4.05;;
47617;SDS011;33336;36.728;-4.414;2023-04-01T06:08:18;12.40;;;3.67;;
47617;SDS011;33336;36.728;-4.414;2023-04-01T06:13:25;9.43;;;3.65;;
47617;SDS011;33336;36.728;-4.414;2023-04-01T06:18:49;16.35;;;4.28;;
47617;SDS011;33336;36.728;-4.414;2023-04-01T06:24:05;11.30;;;4.28;;
47617;SDS011;33336;36.728;-4.414;2023-04-01T06:29:31;13.15;;;3.78;;
47617;SDS011;33336;36.728;-4.414;2023-04-01T06:35:05;7.70;;;3.88;;
47617;SDS011;33336;36.728;-4.414;2023-04-01T06:40:29;11.98;;;3.50;;
47617;SDS011;33336;36.728;-4.414;2023-04-01T06:45:47;10.88;;;3.28;;
47617;SDS011;33336;36.728;-4.414;2023-04-01T06:50:57;9.32;;;3.58;;
47617;SDS011;33336;36.728;-4.414;2023-04-01T06:56:09;10.93;;;2.97;;
47617;SDS011;33336;36.728;-4.414;2023-04-01T07:01:18;6.28;;;2.72;;
47617;SDS011;33336;36.728;-4.414;2023-04-01T07:06:26;8.55;;;2.78;;
47617;SDS011;33336;36.728;-4.414;2023-04-01T07:11:34;13.55;;;4.07;;
47617;SDS011;33336;36.728;-4.414;2023-04-01T07:16:41;11.20;;;2.58;;
47617;SDS011;33336;36.728;-4.414;2023-04-01T07:21:51;7.90;;;2.90;;
47617;SDS011;33336;36.728;-4.414;2023-04-01T07:26:58;13.02;;;3.63;;
47617;SDS011;33336;36.728;-4.414;2023-04-01T07:32:24;6.50;;;2.72;;
47617;SDS011;33336;36.728;-4.414;2023-04-01T07:37:36;13.25;;;3.63;;
47617;SDS011;33336;36.728;-4.414;2023-04-01T07:42:52;13.48;;;2.90;;
47617;SDS011;33336;36.728;-4.414;2023-04-01T07:48:15;8.60;;;2.22;;
47617;SDS011;33336;36.728;-4.414;2023-04-01T07:53:31;7.28;;;2.53;;
47617;SDS011;33336;36.728;-4.414;2023-04-01T07:58:41;6.25;;;2.97;;
47617;SDS011;33336;36.728;-4.414;2023-04-01T08:04:00;8.98;;;2.35;;
47617;SDS011;33336;36.728;-4.414;2023-04-01T08:09:15;6.28;;;2.20;;
47617;SDS011;33336;36.728;-4.414;2023-04-01T08:14:26;9.60;;;2.50;;
47617;SDS011;33336;36.728;-4.414;2023-04-01T08:19:43;9.35;;;2.25;;
47617;SDS011;33336;36.728;-4.414;2023-04-01T08:24:55;5.03;;;2.25;;
47617;SDS011;33336;36.728;-4.414;2023-04-01T08:30:03;7.57;;;2.85;;
47617;SDS011;33336;36.728;-4.414;2023-04-01T08:35:22;6.00;;;2.10;;
47617;SDS011;33336;36.728;-4.414;2023-04-01T08:46:06;6.30;;;2.20;;
47617;SDS011;33336;36.728;-4.414;2023-04-01T08:56:50;8.82;;;2.28;;
47617;SDS011;33336;36.728;-4.414;2023-04-01T09:07:31;10.00;;;2.15;;
47617;SDS011;33336;36.728;-4.414;2023-04-01T09:12:51;8.10;;;2.60;;
47617;SDS011;33336;36.728;-4.414;2023-04-01T09:18:21;6.63;;;1.58;;
47617;SDS011;33336;36.728;-4.414;2023-04-01T09:23:51;6.45;;;2.67;;
47617;SDS011;33336;36.728;-4.414;2023-04-01T09:29:23;8.50;;;3.10;;
47617;SDS011;33336;36.728;-4.414;2023-04-01T09:34:40;5.57;;;2.10;;
47617;SDS011;33336;36.728;-4.414;2023-04-01T09:40:02;5.03;;;2.15;;
47617;SDS011;33336;36.728;-4.414;2023-04-01T09:45:23;9.45;;;2.58;;
47617;SDS011;33336;36.728;-4.414;2023-04-01T09:50:42;9.20;;;2.20;;
47617;SDS011;33336;36.728;-4.414;2023-04-01T10:01:36;5.63;;;2.55;;
47617;SDS011;33336;36.728;-4.414;2023-04-01T10:06:51;8.45;;;2.55;;
47617;SDS011;33336;36.728;-4.414;2023-04-01T10:29:58;9.68;;;3.45;;
47617;SDS011;33336;36.728;-4.414;2023-04-01T10:35:35;5.03;;;1.77;;
47617;SDS011;33336;36.728;-4.414;2023-04-01T10:52:56;5.30;;;1.60;;
47617;SDS011;33336;36.728;-4.414;2023-04-01T10:58:39;5.70;;;1.63;;
47617;SDS011;33336;36.728;-4.414;2023-04-01T11:10:07;2.88;;;1.20;;
47617;SDS011;33336;36.728;-4.414;2023-04-01T11:16:00;4.82;;;1.63;;
47617;SDS011;33336;36.728;-4.414;2023-04-01T11:27:24;4.97;;;1.83;;
47617;SDS011;33336;36.728;-4.414;2023-04-01T11:32:41;4.78;;;1.33;;
47617;SDS011;33336;36.728;-4.414;2023-04-01T11:37:52;4.97;;;1.30;;
47617;SDS011;33336;36.728;-4.414;2023-04-01T11:43:06;2.88;;;0.93;;
47617;SDS011;33336;36.728;-4.414;2023-04-01T11:48:21;5.95;;;1.10;;
47617;SDS011;33336;36.728;-4.414;2023-04-01T11:53:37;5.65;;;1.20;;
47617;SDS011;33336;36.728;-4.414;2023-04-01T11:58:56;3.65;;;1.23;;
47617;SDS011;33336;36.728;-4.414;2023-04-01T12:09:56;4.13;;;1.02;;
47617;SDS011;33336;36.728;-4.414;2023-04-01T12:15:16;7.47;;;1.65;;
47617;SDS011;33336;36.728;-4.414;2023-04-01T12:20:30;2.85;;;1.08;;
47617;SDS011;33336;36.728;-4.414;2023-04-01T12:25:53;2.00;;;0.80;;
47617;SDS011;33336;36.728;-4.414;2023-04-01T12:31:20;3.22;;;0.88;;
47617;SDS011;33336;36.728;-4.414;2023-04-01T12:36:38;3.20;;;1.00;;
47617;SDS011;33336;36.728;-4.414;2023-04-01T12:41:49;3.97;;;0.98;;
47617;SDS011;33336;36.728;-4.414;2023-04-01T12:47:07;5.47;;;1.45;;
47617;SDS011;33336;36.728;-4.414;2023-04-01T12:52:44;7.05;;;1.58;;
47617;SDS011;33336;36.728;-4.414;2023-04-01T13:09:45;5.65;;;1.10;;
47617;SDS011;33336;36.728;-4.414;2023-04-01T13:14:57;3.80;;;1.17;;
47617;SDS011;33336;36.728;-4.414;2023-04-01T13:20:14;7.15;;;0.90;;
47617;SDS011;33336;36.728;-4.414;2023-04-01T13:25:26;5.18;;;1.10;;
47617;SDS011;33336;36.728;-4.414;2023-04-01T13:30:39;4.25;;;1.15;;
47617;SDS011;33336;36.728;-4.414;2023-04-01T13:35:52;3.53;;;0.70;;
47617;SDS011;33336;36.728;-4.414;2023-04-01T13:41:07;4.60;;;1.00;;
47617;SDS011;33336;36.728;-4.414;2023-04-01T13:46:32;3.83;;;1.05;;
47617;SDS011;33336;36.728;-4.414;2023-04-01T13:51:56;3.28;;;1.20;;
47617;SDS011;33336;36.728;-4.414;2023-04-01T13:57:36;3.22;;;1.05;;
47617;SDS011;33336;36.728;-4.414;2023-04-01T14:02:51;6.40;;;1.40;;
47617;SDS011;33336;36.728;-4.414;2023-04-01T14:08:17;7.95;;;1.52;;
47617;SDS011;33336;36.728;-4.414;2023-04-01T14:13:33;3.05;;;1.25;;
47617;SDS011;33336;36.728;-4.414;2023-04-01T14:18:50;3.30;;;1.33;;
47617;SDS011;33336;36.728;-4.414;2023-04-01T14:24:08;6.97;;;1.50;;
47617;SDS011;33336;36.728;-4.414;2023-04-01T14:29:24;5.47;;;1.40;;
47617;SDS011;33336;36.728;-4.414;2023-04-01T14:34:38;4.70;;;1.65;;
47617;SDS011;33336;36.728;-4.414;2023-04-01T14:45:33;6.75;;;2.40;;
47617;SDS011;33336;36.728;-4.414;2023-04-01T14:50:48;5.15;;;1.33;;
47617;SDS011;33336;36.728;-4.414;2023-04-01T14:55:54;7.20;;;1.70;;
47617;SDS011;33336;36.728;-4.414;2023-04-01T15:01:06;9.48;;;2.63;;
47617;SDS011;33336;36.728;-4.414;2023-04-01T15:06:33;4.40;;;1.50;;
47617;SDS011;33336;36.728;-4.414;2023-04-01T15:11:54;6.53;;;1.70;;
47617;SDS011;33336;36.728;-4.414;2023-04-01T15:17:16;7.63;;;1.70;;
47617;SDS011;33336;36.728;-4.414;2023-04-01T15:22:42;5.65;;;1.80;;
47617;SDS011;33336;36.728;-4.414;2023-04-01T15:27:59;3.38;;;1.20;;
47617;SDS011;33336;36.728;-4.414;2023-04-01T15:33:15;6.32;;;1.17;;
47617;SDS011;33336;36.728;-4.414;2023-04-01T15:38:29;1.95;;;0.90;;
47617;SDS011;33336;36.728;-4.414;2023-04-01T15:43:40;3.38;;;1.52;;
47617;SDS011;33336;36.728;-4.414;2023-04-01T15:48:48;6.60;;;1.88;;
47617;SDS011;33336;36.728;-4.414;2023-04-01T15:54:06;8.35;;;1.23;;
47617;SDS011;33336;36.728;-4.414;2023-04-01T15:59:41;5.90;;;1.60;;
47617;SDS011;33336;36.728;-4.414;2023-04-01T16:04:58;7.20;;;3.03;;
47617;SDS011;33336;36.728;-4.414;2023-04-01T16:10:21;5.78;;;1.77;;
47617;SDS011;33336;36.728;-4.414;2023-04-01T16:15:41;9.27;;;1.88;;
47617;SDS011;33336;36.728;-4.414;2023-04-01T16:20:51;7.05;;;1.75;;
47617;SDS011;33336;36.728;-4.414;2023-04-01T16:26:03;4.25;;;1.17;;
47617;SDS011;33336;36.728;-4.414;2023-04-01T16:31:10;4.57;;;1.48;;
47617;SDS011;33336;36.728;-4.414;2023-04-01T16:36:24;5.43;;;1.17;;
47617;SDS011;33336;36.728;-4.414;2023-04-01T16:41:31;7.35;;;1.45;;
47617;SDS011;33336;36.728;-4.414;2023-04-01T16:46:38;6.43;;;1.30;;
47617;SDS011;33336;36.728;-4.414;2023-04-01T16:51:46;6.00;;;1.60;;
47617;SDS011;33336;36.728;-4.414;2023-04-01T16:57:02;6.20;;;2.00;;
47617;SDS011;33336;36.728;-4.414;2023-04-01T17:02:17;6.47;;;2.08;;
47617;SDS011;33336;36.728;-4.414;2023-04-01T17:07:31;6.15;;;1.55;;
47617;SDS011;33336;36.728;-4.414;2023-04-01T17:12:43;3.47;;;1.42;;
47617;SDS011;33336;36.728;-4.414;2023-04-01T17:17:54;3.72;;;1.17;;
47617;SDS011;33336;36.728;-4.414;2023-04-01T17:23:08;4.22;;;1.20;;
47617;SDS011;33336;36.728;-4.414;2023-04-01T17:28:25;7.45;;;1.70;;
47617;SDS011;33336;36.728;-4.414;2023-04-01T17:39:15;5.18;;;1.52;;
47617;SDS011;33336;36.728;-4.414;2023-04-01T17:44:30;5.60;;;2.17;;
47617;SDS011;33336;36.728;-4.414;2023-04-01T17:49:52;7.07;;;2.45;;
47617;SDS011;33336;36.728;-4.414;2023-04-01T17:55:21;4.47;;;1.33;;
47617;SDS011;33336;36.728;-4.414;2023-04-01T18:00:36;5.60;;;1.30;;
47617;SDS011;33336;36.728;-4.414;2023-04-01T18:05:56;7.13;;;1.83;;
47617;SDS011;33336;36.728;-4.414;2023-04-01T18:11:11;5.65;;;1.27;;
47617;SDS011;33336;36.728;-4.414;2023-04-01T18:16:26;3.70;;;1.23;;
47617;SDS011;33336;36.728;-4.414;2023-04-01T18:21:54;7.05;;;1.73;;
47617;SDS011;33336;36.728;-4.414;2023-04-01T18:27:15;3.60;;;1.20;;
47617;SDS011;33336;36.728;-4.414;2023-04-01T18:32:26;4.50;;;0.85;;
47617;SDS011;33336;36.728;-4.414;2023-04-01T18:37:37;4.32;;;0.90;;
47617;SDS011;33336;36.728;-4.414;2023-04-01T18:42:50;1.63;;;0.70;;
47617;SDS011;33336;36.728;-4.414;2023-04-01T18:48:12;2.40;;;1.10;;
47617;SDS011;33336;36.728;-4.414;2023-04-01T18:53:38;2.80;;;1.08;;
47617;SDS011;33336;36.728;-4.414;2023-04-01T18:58:48;2.97;;;1.38;;
47617;SDS011;33336;36.728;-4.414;2023-04-01T19:04:00;2.95;;;0.75;;
47617;SDS011;33336;36.728;-4.414;2023-04-01T19:09:23;1.15;;;0.57;;
47617;SDS011;33336;36.728;-4.414;2023-04-01T19:19:48;2.05;;;0.93;;
47617;SDS011;33336;36.728;-4.414;2023-04-01T19:25:07;5.18;;;1.00;;
47617;SDS011;33336;36.728;-4.414;2023-04-01T19:35:52;3.13;;;0.90;;
47617;SDS011;33336;36.728;-4.414;2023-04-01T19:41:04;5.05;;;1.00;;
47617;SDS011;33336;36.728;-4.414;2023-04-01T19:46:23;4.75;;;1.30;;
47617;SDS011;33336;36.728;-4.414;2023-04-01T19:51:34;4.10;;;1.25;;
47617;SDS011;33336;36.728;-4.414;2023-04-01T19:56:45;3.13;;;1.10;;
47617;SDS011;33336;36.728;-4.414;2023-04-01T20:01:56;5.82;;;1.38;;
47617;SDS011;33336;36.728;-4.414;2023-04-01T20:07:04;3.45;;;1.50;;
47617;SDS011;33336;36.728;-4.414;2023-04-01T20:12:12;2.92;;;1.48;;
47617;SDS011;33336;36.728;-4.414;2023-04-01T20:17:30;3.63;;;1.52;;
47617;SDS011;33336;36.728;-4.414;2023-04-01T20:22:49;8.85;;;2.08;;
47617;SDS011;33336;36.728;-4.414;2023-04-01T20:28:04;2.45;;;1.27;;
47617;SDS011;33336;36.728;-4.414;2023-04-01T20:33:24;5.63;;;1.70;;
47617;SDS011;33336;36.728;-4.414;2023-04-01T20:38:57;3.80;;;1.38;;
47617;SDS011;33336;36.728;-4.414;2023-04-01T20:44:25;6.25;;;1.25;;
47617;SDS011;33336;36.728;-4.414;2023-04-01T20:49:36;5.22;;;1.17;;
47617;SDS011;33336;36.728;-4.414;2023-04-01T20:54:47;4.82;;;1.13;;
47617;SDS011;33336;36.728;-4.414;2023-04-01T21:00:20;4.35;;;1.40;;
47617;SDS011;33336;36.728;-4.414;2023-04-01T21:05:45;6.88;;;1.85;;
47617;SDS011;33336;36.728;-4.414;2023-04-01T21:11:10;4.20;;;1.00;;
47617;SDS011;33336;36.728;-4.414;2023-04-01T21:16:23;3.13;;;1.17;;
47617;SDS011;33336;36.728;-4.414;2023-04-01T21:21:47;4.93;;;1.55;;
47617;SDS011;33336;36.728;-4.414;2023-04-01T21:27:05;3.10;;;0.88;;
47617;SDS011;33336;36.728;-4.414;2023-04-01T21:32:19;4.15;;;1.70;;
47617;SDS011;33336;36.728;-4.414;2023-04-01T21:37:55;5.95;;;1.95;;
47617;SDS011;33336;36.728;-4.414;2023-04-01T21:43:09;3.80;;;1.42;;
47617;SDS011;33336;36.728;-4.414;2023-04-01T21:48:42;3.20;;;0.90;;
47617;SDS011;33336;36.728;-4.414;2023-04-01T21:54:10;3.58;;;1.02;;
47617;SDS011;33336;36.728;-4.414;2023-04-01T22:05:11;5.05;;;1.58;;
47617;SDS011;33336;36.728;-4.414;2023-04-01T22:10:23;3.45;;;1.05;;
47617;SDS011;33336;36.728;-4.414;2023-04-01T22:15:42;7.65;;;1.40;;
47617;SDS011;33336;36.728;-4.414;2023-04-01T22:20:59;4.20;;;0.75;;
47617;SDS011;33336;36.728;-4.414;2023-04-01T22:26:10;6.63;;;1.75;;
47617;SDS011;33336;36.728;-4.414;2023-04-01T22:31:19;6.75;;;1.85;;
47617;SDS011;33336;36.728;-4.414;2023-04-01T22:36:29;4.85;;;1.67;;
47617;SDS011;33336;36.728;-4.414;2023-04-01T22:41:43;3.55;;;1.13;;
47617;SDS011;33336;36.728;-4.414;2023-04-01T22:46:59;4.78;;;1.63;;
47617;SDS011;33336;36.728;-4.414;2023-04-01T22:52:09;4.35;;;1.20;;
47617;SDS011;33336;36.728;-4.414;2023-04-01T22:57:28;7.07;;;1.48;;
47617;SDS011;33336;36.728;-4.414;2023-04-01T23:02:42;6.45;;;1.52;;
47617;SDS011;33336;36.728;-4.414;2023-04-01T23:07:52;7.03;;;1.65;;
47617;SDS011;33336;36.728;-4.414;2023-04-01T23:13:03;3.45;;;1.08;;
47617;SDS011;33336;36.728;-4.414;2023-04-01T23:18:15;6.53;;;0.93;;
47617;SDS011;33336;36.728;-4.414;2023-04-01T23:23:28;4.22;;;1.30;;
47617;SDS011;33336;36.728;-4.414;2023-04-01T23:28:43;2.55;;;1.52;;
47617;SDS011;33336;36.728;-4.414;2023-04-01T23:33:51;2.70;;;1.05;;
47617;SDS011;33336;36.728;-4.414;2023-04-01T23:38:55;4.55;;;1.90;;
47617;SDS011;33336;36.728;-4.414;2023-04-01T23:44:04;3.55;;;1.50;;
47617;SDS011;33336;36.728;-4.414;2023-04-01T23:49:11;5.68;;;1.42;;
47617;SDS011;33336;36.728;-4.414;2023-04-01T23:54:18;6.15;;;1.70;;
47617;SDS011;33336;36.728;-4.414;2023-04-01T23:59:30;5.63;;;1.60;;
